x

West Bermuda - 240 Nm West Of Bermuda (41048) Wave Buoy

12:50am - Tue 4th Aug 2015 All times are UTC.

  • Sig Wave height 3.6ft
  • Swell Direction
  • Peak Period 8s
  • Average Period 5s
  • Wind
    13mph, 16mph gusts
  • Sea Temp 83°f
  • Air Temp 83°f
  • Sea Pressure 1020.6mb

More Historic Weather Station data

Upgrade to MSW Pro to gain access to the past 30 days of data for over 8000 Wavebouys and Weather Stations around the globe.

Join Pro

Comparision Forecast

View Surf forecast
   
Tue 08/04 12:50am 3.5ft 8s 5s 13 16 mph 1020.6mb 83f 83f
Mon 08/03 11:50pm 3.5ft 7s 5s 11 13 mph 1020.1mb 83f 83f
10:50pm 3.5ft 7s 5s 13 16 mph 1019.9mb 83f 83f
9:50pm 3.5ft 8s 6s 11 13 mph 1019.5mb 83f 83f
8:50pm 3.5ft 7s 6s 13 16 mph 1019.7mb 83f 83f
7:50pm 3.5ft 7s 6s 11 13 mph 1019.3mb 83f 83f
6:50pm 4ft 6s 6s 11 13 mph 1019.8mb 83f 83f
5:50pm 4ft 8s 6s 11 13 mph 1020.3mb 83f 83f
4:50pm 4ft 8s 6s 11 13 mph 1020.5mb 83f 83f
3:50pm 4.5ft 8s 6s 4 7 mph 1020.3mb 83f 82f
2:50pm 4ft 7s 6s 7 9 mph 1020.7mb 82f 82f
1:50pm 4ft 7s 5s 9 11 mph 1020.1mb 82f 82f
12:50pm 4.5ft 8s 6s 11 13 mph 1019.8mb 82f 82f
11:50am 4.5ft 7s 6s 9
mph
1019.6mb 82f 80f
10:50am 4.5ft 8s 6s 13 18 mph 1019.1mb 82f 81f
9:50am 4.5ft 8s 5s 16 20 mph 1018.8mb 82f 79f
8:50am 4.5ft 8s 5s 11 13 mph 1018.3mb 82f 82f
7:50am 4.5ft 8s 5s 13 16 mph 1018.3mb 82f 82f
6:50am 4.5ft 7s 5s 13 18 mph 1018.2mb 82f 82f
5:50am 4.5ft 8s 5s 16 18 mph 1018.3mb 82f 82f
4:50am 4.5ft 8s 5s 16 18 mph 1018.7mb 82f 82f
3:50am 4.5ft 7s 5s 13 18 mph 1019.2mb 82f 82f
2:50am 4.5ft 8s 6s 13 18 mph 1019.1mb 82f 82f
1:50am 4ft 8s 5s 13 16 mph 1019.1mb 82f 82f
12:50am 4.5ft 8s 6s 13 18 mph 1018.8mb 82f 83f
Sun 08/02 11:50pm 4.5ft 8s 5s 11 13 mph 1018.5mb 82f 82f
10:50pm 4.5ft 7s 6s 11 16 mph 1018.6mb 82f 82f
9:50pm 4.5ft 7s 6s 13
mph
1018.8mb 83f 83f
8:50pm 4.5ft 7s 6s 13 16 mph 1018.9mb 83f 83f
7:50pm 4.5ft 7s 6s 11 16 mph 1018.7mb 82f 83f
6:50pm 4ft 7s 6s 13
mph
1018.9mb 83f 83f
5:50pm 4.5ft 7s 5s 11 13 mph 1019mb 82f 83f
4:50pm 4.5ft 7s 6s 13 16 mph 1019mb 82f 82f
2:50pm 4.5ft 7s 5s 11 13 mph 1019.2mb 82f 82f
1:50pm 4.5ft 7s 5s 11 16 mph 1019mb 82f 82f
12:50pm 4.5ft 7s 5s 11 13 mph 1018.9mb 82f 82f
11:50am 4.5ft 7s 5s 13 16 mph 1018.5mb 82f 82f
10:50am 4.5ft 7s 5s 16 18 mph 1018.1mb 82f 82f
9:50am 4.5ft 8s 5s 16 18 mph 1017.8mb 82f 82f
8:50am 4.5ft 7s 5s 16 20 mph 1017.6mb 82f 82f
7:50am 4.5ft 7s 5s 13 18 mph 1017.8mb 82f 82f
6:50am 4.5ft 7s 6s 16 18 mph 1017.8mb 82f 82f
5:50am 5ft 7s 6s 16 18 mph 1017.9mb 82f 82f
4:50am 4.5ft 7s 6s 16 18 mph 1018.3mb 82f 82f
3:50am 4.5ft 7s 6s 13 16 mph 1018.5mb 82f 82f
2:50am 4.5ft 7s 5s 13 18 mph 1018.7mb 82f 82f
1:50am 5ft 7s 6s 13 16 mph 1018.8mb 82f 82f
12:50am 4.5ft 7s 6s 13 16 mph 1018.4mb 82f 82f
Sat 08/01 11:50pm 4.5ft 7s 5s 13 16 mph 1018.1mb 82f 82f
10:50pm 4.5ft 7s 5s 13 18 mph 1017.9mb 82f 82f
9:50pm 5ft 7s 6s 13 16 mph 1017.8mb 82f 83f
8:50pm 4.5ft 6s 6s 13 16 mph 1018.1mb 82f 83f
7:50pm 5ft 7s 6s 11 13 mph 1018.1mb 82f 83f
6:50pm 5ft 7s 6s 13 16 mph 1018.5mb 82f 82f
5:50pm 5ft 7s 6s 13 16 mph 1018.6mb 82f 82f
4:50pm 5ft 7s 6s 13 16 mph 1018.8mb 82f 82f
3:50pm 5ft 8s 6s 13 16 mph 1019mb 82f 82f
2:50pm 5ft 7s 5s 11 16 mph 1018.9mb 82f 82f
1:50pm 5ft 7s 6s 16 18 mph 1018.6mb 81f 82f
12:50pm 5ft 8s 6s 16 18 mph 1018.7mb 81f 82f
11:50am 5ft 7s 5s 13 18 mph 1018.4mb 81f 82f
10:50am 5.5ft 8s 5s 16 20 mph 1018.1mb 81f 82f
9:50am 5ft 6s 5s 18 20 mph 1017.8mb 81f 82f
8:50am 5.5ft 8s 6s 18 22 mph 1017.5mb 81f 82f
7:50am 5ft 8s 6s 16 20 mph 1017.8mb 81f 82f
6:50am 6ft 8s 6s 18 20 mph 1017.9mb 81f 82f
5:50am 5.5ft 8s 6s 18 22 mph 1018.4mb 81f 82f
4:50am 6ft 8s 6s 16 20 mph 1018.6mb 81f 82f
3:50am 6ft 8s 6s 18 20 mph 1018.9mb 82f 82f
2:50am 6ft 8s 6s 18 20 mph 1018.8mb 82f 82f
1:50am 6ft 8s 6s 16 20 mph 1018.8mb 82f 82f
12:50am 6ft 7s 6s 18 25 mph 1018.1mb 82f 82f
Fri 07/31 11:50pm 5.5ft 8s 6s 18 22 mph 1017.8mb 82f 82f
10:50pm 6.5ft 8s 6s 18 22 mph 1017.6mb 82f 83f
9:50pm 7ft 8s 6s 18 22 mph 1017.4mb 82f 83f
8:50pm 7.5ft 8s 6s 18 22 mph 1017.4mb 82f 83f
7:50pm 7ft 9s 6s 20 25 mph 1017.5mb 82f 83f
6:50pm 7ft 9s 6s 18 22 mph 1017.9mb 82f 82f
5:50pm 7.5ft 8s 6s 18 22 mph 1018.8mb 82f 82f
4:50pm 7ft 9s 6s 18 20 mph 1019.1mb 81f 82f
3:50pm 7ft 8s 6s 18 20 mph 1019.4mb 81f 82f
2:50pm 7ft 9s 6s 16 20 mph 1019.6mb 81f 82f
1:50pm 6ft 8s 6s 18 20 mph 1019.5mb 81f 82f
12:50pm 5.5ft 8s 6s 16 18 mph 1019.5mb 81f 82f
11:50am 5ft 8s 6s 18 20 mph 1019.2mb 81f 82f
10:50am 5.5ft 8s 6s 16 20 mph 1018.7mb 81f 82f
9:50am 5.5ft 8s 6s 18 20 mph 1018.3mb 81f 82f
8:50am 5ft 8s 5s 18 20 mph 1018mb 81f 81f
7:50am 5ft 8s 6s 16 20 mph 1018.3mb 81f 82f
6:50am 5ft 8s 6s 16 20 mph 1018.6mb 81f 82f
5:50am 4.5ft 8s 6s 16 18 mph 1019mb 81f 82f
4:50am 5ft 8s 6s 16 18 mph 1019.5mb 81f 82f
3:50am 4.5ft 8s 6s 13 18 mph 1019.6mb 81f 82f
2:50am 4.5ft 8s 6s 16 20 mph 1019.7mb 82f 82f